createdAt,value
2022-10-11T00:02:18.932Z,7.68
2022-10-11T00:04:46.457Z,7.55
2022-10-11T00:07:13.850Z,7.45
2022-10-11T00:09:41.352Z,7.45
2022-10-11T00:12:08.765Z,6.50
2022-10-11T00:14:36.306Z,10.95
2022-10-11T00:17:03.878Z,7.72
2022-10-11T00:19:31.430Z,6.70
2022-10-11T00:21:58.813Z,6.85
2022-10-11T00:24:26.747Z,7.70
2022-10-11T00:26:54.385Z,7.50
2022-10-11T00:29:21.863Z,7.18
2022-10-11T00:31:49.341Z,5.63
2022-10-11T00:34:18.208Z,4.53
2022-10-11T00:36:46.129Z,8.93
2022-10-11T00:39:14.606Z,6.13
2022-10-11T00:41:42.482Z,6.45
2022-10-11T00:44:11.077Z,6.72
2022-10-11T00:46:38.643Z,9.65
2022-10-11T00:49:18.575Z,7.60
2022-10-11T00:51:49.000Z,7.55
2022-10-11T00:54:18.450Z,9.55
2022-10-11T00:56:49.349Z,6.80
2022-10-11T00:59:22.035Z,7.18
2022-10-11T01:01:49.911Z,6.32
2022-10-11T01:04:17.328Z,9.55
2022-10-11T01:06:44.823Z,7.18
2022-10-11T01:09:13.140Z,5.95
2022-10-11T01:11:42.171Z,7.28
2022-10-11T01:14:21.940Z,7.85
2022-10-11T01:17:02.487Z,6.55
2022-10-11T01:19:49.203Z,6.80
2022-10-11T01:22:35.261Z,5.93
2022-10-11T01:25:08.666Z,6.72
2022-10-11T01:27:44.117Z,6.93
2022-10-11T01:30:20.909Z,6.30
2022-10-11T01:32:48.336Z,8.57
2022-10-11T01:35:25.048Z,9.30
2022-10-11T01:38:03.938Z,8.75
2022-10-11T01:40:40.555Z,9.23
2022-10-11T01:43:08.104Z,8.60
2022-10-11T01:45:35.640Z,8.48
2022-10-11T01:48:11.071Z,5.78
2022-10-11T01:50:46.040Z,7.07
2022-10-11T01:53:42.627Z,8.48
2022-10-11T01:56:28.588Z,7.18
2022-10-11T01:59:03.578Z,6.53
2022-10-11T02:01:43.227Z,7.68
2022-10-11T02:04:31.204Z,8.45
2022-10-11T02:06:58.605Z,6.80
2022-10-11T02:09:38.304Z,5.43
2022-10-11T02:12:11.648Z,6.22
2022-10-11T02:14:48.344Z,6.20
2022-10-11T02:17:18.818Z,8.18
2022-10-11T02:19:49.167Z,5.80
2022-10-11T02:22:22.976Z,8.07
2022-10-11T02:24:52.787Z,8.93
2022-10-11T02:27:22.484Z,6.82
2022-10-11T02:29:51.488Z,8.00
2022-10-11T02:32:19.460Z,7.00
2022-10-11T02:34:49.806Z,9.27
2022-10-11T02:37:35.755Z,9.30
2022-10-11T02:40:12.229Z,10.02
2022-10-11T02:42:44.478Z,10.80
2022-10-11T02:45:15.558Z,13.38
2022-10-11T02:47:43.522Z,19.08
2022-10-11T02:50:14.308Z,14.20
2022-10-11T02:52:41.808Z,15.35
2022-10-11T02:55:09.740Z,14.40
2022-10-11T02:57:37.204Z,14.30
2022-10-11T03:00:05.096Z,15.13
2022-10-11T03:02:32.638Z,12.63
2022-10-11T03:05:00.321Z,11.35
2022-10-11T03:07:27.693Z,16.25
2022-10-11T03:09:55.159Z,12.15
2022-10-11T03:12:22.615Z,19.40
2022-10-11T03:14:50.051Z,12.70
2022-10-11T03:17:35.663Z,11.30
2022-10-11T03:20:04.555Z,11.93
2022-10-11T03:22:31.980Z,9.52
2022-10-11T03:25:03.534Z,15.90
2022-10-11T03:27:32.320Z,13.13
2022-10-11T03:29:59.811Z,15.52
2022-10-11T03:32:27.360Z,10.90
2022-10-11T03:34:54.927Z,9.43
2022-10-11T03:37:22.409Z,14.07
2022-10-11T03:39:50.055Z,14.63
2022-10-11T03:42:17.520Z,14.75
2022-10-11T03:44:45.018Z,10.40
2022-10-11T03:47:12.859Z,10.60
2022-10-11T03:49:43.653Z,9.93
2022-10-11T03:52:11.574Z,13.50
2022-10-11T03:54:38.996Z,16.27
2022-10-11T03:57:06.505Z,10.02
2022-10-11T03:59:33.936Z,14.60
2022-10-11T04:02:01.592Z,10.80
2022-10-11T04:04:29.047Z,11.85
2022-10-11T04:06:56.475Z,10.55
2022-10-11T04:09:23.860Z,12.40
2022-10-11T04:11:51.377Z,10.25
2022-10-11T04:14:18.804Z,12.73
2022-10-11T04:16:46.197Z,10.00
2022-10-11T04:19:13.773Z,11.93
2022-10-11T04:21:41.203Z,11.50
2022-10-11T04:24:08.720Z,9.95
2022-10-11T04:26:36.133Z,10.65
2022-10-11T04:29:04.559Z,13.10
2022-10-11T04:31:31.936Z,11.32
2022-10-11T04:33:59.374Z,12.10
2022-10-11T04:36:26.783Z,14.85
2022-10-11T04:38:56.245Z,9.57
2022-10-11T04:41:23.679Z,8.75
2022-10-11T04:43:51.070Z,11.75
2022-10-11T04:46:18.565Z,11.50
2022-10-11T04:48:46.039Z,14.30
2022-10-11T04:51:13.539Z,13.25
2022-10-11T04:53:40.923Z,12.02
2022-10-11T04:56:11.671Z,11.90
2022-10-11T04:58:42.923Z,11.07
2022-10-11T05:01:10.831Z,15.70
2022-10-11T05:03:38.447Z,12.35
2022-10-11T05:06:06.371Z,9.88
2022-10-11T05:08:34.344Z,12.30
2022-10-11T05:11:06.118Z,11.73
2022-10-11T05:13:34.634Z,10.32
2022-10-11T05:16:05.790Z,11.70
2022-10-11T05:18:35.951Z,11.57
2022-10-11T05:21:07.665Z,9.65
2022-10-11T05:23:35.941Z,10.65
2022-10-11T05:26:04.084Z,10.65
2022-10-11T05:28:32.089Z,10.05
2022-10-11T05:30:59.957Z,10.05
2022-10-11T05:33:27.722Z,9.40
2022-10-11T05:35:55.163Z,11.65
2022-10-11T05:38:23.055Z,10.63
2022-10-11T05:40:50.710Z,14.40
2022-10-11T05:43:19.944Z,10.23
2022-10-11T05:45:47.545Z,12.38
2022-10-11T05:48:14.968Z,10.55
2022-10-11T05:50:42.714Z,9.93
2022-10-11T05:53:10.175Z,15.20
2022-10-11T05:55:38.447Z,10.10
2022-10-11T05:58:06.523Z,10.65
2022-10-11T06:00:36.720Z,13.38
2022-10-11T06:03:04.884Z,10.30
2022-10-11T06:05:32.362Z,9.77
2022-10-11T06:07:59.815Z,8.48
2022-10-11T06:10:27.228Z,8.80
2022-10-11T06:12:54.810Z,8.05
2022-10-11T06:15:22.241Z,12.82
2022-10-11T06:17:49.705Z,12.93
2022-10-11T06:20:17.140Z,10.77
2022-10-11T06:22:44.646Z,31.77
2022-10-11T06:25:12.271Z,19.88
2022-10-11T06:27:58.449Z,12.95
2022-10-11T06:30:25.928Z,12.02
2022-10-11T06:32:53.387Z,10.98
2022-10-11T06:35:20.858Z,13.55
2022-10-11T06:37:48.235Z,16.75
2022-10-11T06:40:15.844Z,20.15
2022-10-11T06:42:43.228Z,22.95
2022-10-11T06:45:11.051Z,14.15
2022-10-11T06:47:38.427Z,11.48
2022-10-11T06:50:06.379Z,14.27
2022-10-11T06:52:33.843Z,26.80
2022-10-11T06:55:01.328Z,36.22
2022-10-11T06:57:29.443Z,40.67
2022-10-11T06:59:57.110Z,21.20
2022-10-11T07:02:24.464Z,14.35
2022-10-11T07:04:51.923Z,12.18
2022-10-11T07:07:19.362Z,12.70
2022-10-11T07:09:46.774Z,13.75
2022-10-11T07:12:14.311Z,9.23
2022-10-11T07:14:41.776Z,11.07
2022-10-11T07:17:09.279Z,12.05
2022-10-11T07:19:36.667Z,11.73
2022-10-11T07:22:04.630Z,14.13
2022-10-11T07:24:32.019Z,13.20
2022-10-11T07:26:59.569Z,12.07
2022-10-11T07:29:26.971Z,14.40
2022-10-11T07:31:54.461Z,11.60
2022-10-11T07:34:22.936Z,10.30
2022-10-11T07:36:50.425Z,12.90
2022-10-11T07:39:17.897Z,12.13
2022-10-11T07:41:46.173Z,19.58
2022-10-11T07:44:14.530Z,14.10
2022-10-11T07:46:41.914Z,9.50
2022-10-11T07:49:09.398Z,11.70
2022-10-11T07:51:36.779Z,18.85
2022-10-11T07:54:07.190Z,14.68
2022-10-11T07:56:35.120Z,12.65
2022-10-11T07:59:05.858Z,9.00
2022-10-11T08:01:33.765Z,10.10
2022-10-11T08:04:01.279Z,7.18
2022-10-11T08:06:31.819Z,7.03
2022-10-11T08:09:00.650Z,10.90
2022-10-11T08:11:29.515Z,10.80
2022-10-11T08:13:57.426Z,12.70
2022-10-11T08:16:25.415Z,12.30
2022-10-11T08:18:54.504Z,9.60
2022-10-11T08:21:21.986Z,12.77
2022-10-11T08:23:49.775Z,12.07
2022-10-11T08:26:17.259Z,12.25
2022-10-11T08:28:44.846Z,9.23
2022-10-11T08:31:13.341Z,11.43
2022-10-11T08:33:41.139Z,11.77
2022-10-11T08:36:09.927Z,9.00
2022-10-11T08:38:38.500Z,10.45
2022-10-11T08:41:19.935Z,10.05
2022-10-11T08:43:58.638Z,8.63
2022-10-11T08:46:28.762Z,9.43
2022-10-11T08:48:56.345Z,15.07
2022-10-11T08:51:30.728Z,8.65
2022-10-11T08:54:07.159Z,11.02
2022-10-11T08:56:38.802Z,11.63
2022-10-11T08:59:12.207Z,10.90
2022-10-11T09:01:44.357Z,12.07
2022-10-11T09:04:14.630Z,19.83
2022-10-11T09:06:51.114Z,9.48
2022-10-11T09:09:18.610Z,11.98
2022-10-11T09:11:48.766Z,7.90
2022-10-11T09:14:19.388Z,9.88
2022-10-11T09:17:05.705Z,14.02
2022-10-11T09:19:38.329Z,13.23
2022-10-11T09:22:14.867Z,7.90
2022-10-11T09:25:01.171Z,9.18
2022-10-11T09:27:57.231Z,12.55
2022-10-11T09:30:17.719Z,10.57
2022-10-11T09:32:47.321Z,12.70
2022-10-11T09:35:16.152Z,8.20
2022-10-11T09:38:04.074Z,10.85
2022-10-11T09:40:50.167Z,12.88
2022-10-11T09:43:17.549Z,13.43
2022-10-11T09:45:49.479Z,9.43
2022-10-11T09:48:31.566Z,9.10
2022-10-11T09:51:22.304Z,9.43
2022-10-11T09:53:51.282Z,7.95
2022-10-11T09:56:18.692Z,12.43
2022-10-11T09:58:46.168Z,11.68
2022-10-11T10:01:22.440Z,11.43
2022-10-11T10:04:04.109Z,12.80
2022-10-11T10:06:31.645Z,9.63
2022-10-11T10:09:17.969Z,91.63
2022-10-11T10:11:45.462Z,11.32
2022-10-11T10:14:23.717Z,14.20
2022-10-11T10:16:58.748Z,11.07
2022-10-11T10:21:54.662Z,9.30
2022-10-11T10:24:34.347Z,8.68
2022-10-11T10:27:11.177Z,9.63
2022-10-11T10:29:38.710Z,8.93
2022-10-11T10:32:14.758Z,9.18
2022-10-11T10:34:52.140Z,9.68
2022-10-11T10:37:26.099Z,11.82
2022-10-11T10:40:13.757Z,15.18
2022-10-11T10:42:41.244Z,7.80
2022-10-11T10:45:13.077Z,9.68
2022-10-11T10:47:45.004Z,10.20
2022-10-11T10:50:12.450Z,6.85
2022-10-11T10:52:46.963Z,8.57
2022-10-11T10:55:14.545Z,9.40
2022-10-11T10:57:53.908Z,8.05
2022-10-11T11:00:22.884Z,9.55
2022-10-11T11:03:02.534Z,6.95
2022-10-11T11:05:48.884Z,8.50
2022-10-11T11:08:28.343Z,12.27
2022-10-11T11:11:05.801Z,11.95
2022-10-11T11:13:51.567Z,11.88
2022-10-11T11:16:19.051Z,17.30
2022-10-11T11:18:55.453Z,19.23
2022-10-11T11:21:22.939Z,15.93
2022-10-11T11:23:57.131Z,12.18
2022-10-11T11:26:30.754Z,15.80
2022-10-11T11:29:01.315Z,9.55
2022-10-11T11:31:41.059Z,9.90
2022-10-11T11:34:16.929Z,9.75
2022-10-11T11:36:47.476Z,12.35
2022-10-11T11:39:21.002Z,9.60
2022-10-11T11:41:54.507Z,9.02
2022-10-11T11:44:36.946Z,9.73
2022-10-11T11:47:11.072Z,8.85
2022-10-11T11:49:40.012Z,12.15
2022-10-11T11:52:08.427Z,8.70
2022-10-11T11:54:52.750Z,9.20
2022-10-11T11:57:28.773Z,7.60
2022-10-11T11:59:56.957Z,8.40
2022-10-11T12:02:27.522Z,7.63
2022-10-11T12:04:54.968Z,9.30
2022-10-11T12:07:24.498Z,7.28
2022-10-11T12:10:14.847Z,11.68
2022-10-11T12:12:42.594Z,10.15
2022-10-11T12:15:10.118Z,6.45
2022-10-11T12:18:09.743Z,24.38
2022-10-11T12:20:40.888Z,16.05
2022-10-11T12:23:27.152Z,14.77
2022-10-11T12:26:14.907Z,10.15
2022-10-11T12:28:42.746Z,10.50
2022-10-11T12:31:20.976Z,11.98
2022-10-11T12:33:51.014Z,9.73
2022-10-11T12:36:21.323Z,9.52
2022-10-11T12:39:08.798Z,11.18
2022-10-11T12:41:38.528Z,9.48
2022-10-11T12:44:26.327Z,13.82
2022-10-11T12:46:53.909Z,10.18
2022-10-11T12:49:39.965Z,12.07
2022-10-11T12:52:26.124Z,9.82
2022-10-11T12:54:53.606Z,20.33
2022-10-11T12:57:46.587Z,13.07
2022-10-11T13:00:23.859Z,7.40
2022-10-11T13:02:51.396Z,9.23
2022-10-11T13:05:24.609Z,7.53
2022-10-11T13:07:53.227Z,11.23
2022-10-11T13:10:31.704Z,9.93
2022-10-11T13:13:04.315Z,9.23
2022-10-11T13:15:31.915Z,12.00
2022-10-11T13:18:00.813Z,11.15
2022-10-11T13:20:32.417Z,9.60
2022-10-11T13:22:59.938Z,10.18
2022-10-11T13:25:28.799Z,7.90
2022-10-11T13:27:57.540Z,15.57
2022-10-11T13:30:26.680Z,13.95
2022-10-11T13:32:57.816Z,10.82
2022-10-11T13:35:34.011Z,9.77
2022-10-11T13:38:01.923Z,11.13
2022-10-11T13:40:30.584Z,14.75
2022-10-11T13:42:58.345Z,14.20
2022-10-11T13:45:26.816Z,15.52
2022-10-11T13:47:54.984Z,14.40
2022-10-11T13:50:23.675Z,12.48
2022-10-11T13:52:55.730Z,11.02
2022-10-11T13:55:44.567Z,10.43
2022-10-11T13:58:30.288Z,10.82
2022-10-11T14:00:59.641Z,8.90
2022-10-11T14:03:36.223Z,12.50
2022-10-11T14:06:04.178Z,9.68
2022-10-11T14:08:35.697Z,9.05
2022-10-11T14:11:06.609Z,10.77
2022-10-11T14:13:36.207Z,8.35
2022-10-11T14:16:08.470Z,11.80
2022-10-11T14:18:42.764Z,14.95
2022-10-11T14:21:22.639Z,11.77
2022-10-11T14:23:53.577Z,14.90
2022-10-11T14:26:21.973Z,13.73
2022-10-11T14:28:52.432Z,10.35
2022-10-11T14:31:19.941Z,8.35
2022-10-11T14:33:47.532Z,8.27
2022-10-11T14:36:14.991Z,9.63
2022-10-11T14:38:42.477Z,10.10
2022-10-11T14:41:09.945Z,9.43
2022-10-11T14:43:37.307Z,19.85
2022-10-11T14:46:05.732Z,8.63
2022-10-11T14:48:56.379Z,13.68
2022-10-11T14:51:23.019Z,12.30
2022-10-11T14:53:50.668Z,13.52
2022-10-11T14:56:21.482Z,15.00
2022-10-11T14:58:49.215Z,13.10
2022-10-11T15:01:17.911Z,14.27
2022-10-11T15:03:45.428Z,15.30
2022-10-11T15:06:18.834Z,11.80
2022-10-11T15:08:46.467Z,13.15
2022-10-11T15:11:18.418Z,15.18
2022-10-11T15:13:45.923Z,13.32
2022-10-11T15:16:14.536Z,17.90
2022-10-11T15:18:42.123Z,10.75
2022-10-11T15:21:12.404Z,13.68
2022-10-11T15:23:39.932Z,15.77
2022-10-11T15:26:07.971Z,19.17
2022-10-11T15:28:35.726Z,27.13
2022-10-11T15:31:03.351Z,25.13
2022-10-11T15:33:30.850Z,25.15
2022-10-11T15:35:58.370Z,29.15
2022-10-11T15:38:26.445Z,27.40
2022-10-11T15:40:53.988Z,34.75
2022-10-11T15:43:24.695Z,25.48
2022-10-11T15:45:52.775Z,25.48
2022-10-11T15:48:21.490Z,25.95
2022-10-11T15:50:50.257Z,24.90
2022-10-11T15:53:19.301Z,24.25
2022-10-11T15:55:49.536Z,24.80
2022-10-11T15:58:18.620Z,24.13
2022-10-11T16:00:47.392Z,29.38
2022-10-11T16:03:21.074Z,33.65
2022-10-11T16:05:48.845Z,34.22
2022-10-11T16:08:16.244Z,37.88
2022-10-11T16:10:44.331Z,45.42
2022-10-11T16:13:12.324Z,39.47
2022-10-11T16:15:40.764Z,34.25
2022-10-11T16:18:09.195Z,41.45
2022-10-11T16:20:38.860Z,37.00
2022-10-11T16:23:06.529Z,34.33
2022-10-11T16:25:34.222Z,36.30
2022-10-11T16:28:02.608Z,32.78
2022-10-11T16:30:30.007Z,38.85
2022-10-11T16:32:57.501Z,34.25
2022-10-11T16:35:26.968Z,35.05
2022-10-11T16:37:57.631Z,26.23
2022-10-11T16:40:26.683Z,23.77
2022-10-11T16:42:54.101Z,24.63
2022-10-11T16:45:27.893Z,25.08
2022-10-11T16:47:57.442Z,29.63
2022-10-11T16:50:24.964Z,26.80
2022-10-11T16:52:55.707Z,30.33
2022-10-11T16:55:23.750Z,28.05
2022-10-11T16:57:51.356Z,32.25
2022-10-11T17:00:19.143Z,31.90
2022-10-11T17:02:46.626Z,37.35
2022-10-11T17:05:14.180Z,36.22
2022-10-11T17:07:41.737Z,31.33
2022-10-11T17:10:09.385Z,28.77
2022-10-11T17:12:38.665Z,23.50
2022-10-11T17:15:06.523Z,24.00
2022-10-11T17:17:34.020Z,25.60
2022-10-11T17:20:02.420Z,18.58
2022-10-11T17:22:30.053Z,23.67
2022-10-11T17:24:57.516Z,23.83
2022-10-11T17:27:25.056Z,22.08
2022-10-11T17:29:52.494Z,22.30
2022-10-11T17:32:19.878Z,19.73
2022-10-11T17:34:47.366Z,21.85
2022-10-11T17:37:15.316Z,20.58
2022-10-11T17:39:42.971Z,16.73
2022-10-11T17:42:10.369Z,21.77
2022-10-11T17:44:37.883Z,19.40
2022-10-11T17:47:05.708Z,16.70
2022-10-11T17:49:33.340Z,18.58
2022-10-11T17:52:00.780Z,18.73
2022-10-11T17:54:28.183Z,18.35
2022-10-11T17:56:55.657Z,21.55
2022-10-11T17:59:27.361Z,18.50
2022-10-11T18:01:54.872Z,20.70
2022-10-11T18:04:23.331Z,15.25
2022-10-11T18:06:50.752Z,16.20
2022-10-11T18:09:18.699Z,14.50
2022-10-11T18:11:46.854Z,19.90
2022-10-11T18:14:14.394Z,19.40
2022-10-11T18:16:42.047Z,20.73
2022-10-11T18:19:12.473Z,14.18
2022-10-11T18:21:40.361Z,16.90
2022-10-11T18:24:10.958Z,19.75
2022-10-11T18:26:38.495Z,25.05
2022-10-11T18:29:06.357Z,19.00
2022-10-11T18:31:35.245Z,20.90
2022-10-11T18:34:10.984Z,21.40
2022-10-11T18:36:38.707Z,23.90
2022-10-11T18:39:10.486Z,18.98
2022-10-11T18:41:38.974Z,24.77
2022-10-11T18:44:07.609Z,24.45
2022-10-11T18:46:35.219Z,26.80
2022-10-11T18:49:02.934Z,21.25
2022-10-11T18:51:31.711Z,21.80
2022-10-11T18:53:59.472Z,18.80
2022-10-11T18:56:27.438Z,21.55
2022-10-11T18:58:55.523Z,17.48
2022-10-11T19:01:24.284Z,25.33
2022-10-11T19:03:53.176Z,20.67
2022-10-11T19:06:21.953Z,20.85
2022-10-11T19:08:53.446Z,22.15
2022-10-11T19:11:22.322Z,21.27
2022-10-11T19:13:55.464Z,25.77
2022-10-11T19:16:23.144Z,25.27
2022-10-11T19:18:51.224Z,21.58
2022-10-11T19:21:18.960Z,17.83
2022-10-11T19:23:47.202Z,20.98
2022-10-11T19:26:19.267Z,16.45
2022-10-11T19:28:47.110Z,20.42
2022-10-11T19:31:17.013Z,20.95
2022-10-11T19:33:45.571Z,16.27
2022-10-11T19:36:14.293Z,19.25
2022-10-11T19:38:45.022Z,24.92
2022-10-11T19:41:13.449Z,18.65
2022-10-11T19:43:40.865Z,16.00
2022-10-11T19:46:09.879Z,17.23
2022-10-11T19:48:42.716Z,17.58
2022-10-11T19:51:14.780Z,17.85
2022-10-11T19:53:42.652Z,16.98
2022-10-11T19:56:11.979Z,19.23
2022-10-11T19:58:39.747Z,15.13
2022-10-11T20:01:08.319Z,14.85
2022-10-11T20:03:35.864Z,17.13
2022-10-11T20:06:04.245Z,18.80
2022-10-11T20:08:32.261Z,22.48
2022-10-11T20:11:00.552Z,16.05
2022-10-11T20:13:32.483Z,18.50
2022-10-11T20:16:07.001Z,18.55
2022-10-11T20:18:34.806Z,16.77
2022-10-11T20:21:06.132Z,14.48
2022-10-11T20:23:34.630Z,12.52
2022-10-11T20:26:04.256Z,16.08
2022-10-11T20:28:32.325Z,11.77
2022-10-11T20:31:00.599Z,17.20
2022-10-11T20:33:29.536Z,13.63
2022-10-11T20:35:58.467Z,16.13
2022-10-11T20:38:25.883Z,22.02
2022-10-11T20:40:53.354Z,12.05
2022-10-11T20:43:20.784Z,18.10
2022-10-11T20:45:58.300Z,14.75
2022-10-11T20:48:25.955Z,15.35
2022-10-11T20:50:53.385Z,13.02
2022-10-11T20:53:20.846Z,14.27
2022-10-11T20:55:48.617Z,15.68
2022-10-11T20:58:16.266Z,16.15
2022-10-11T21:00:44.517Z,15.68
2022-10-11T21:03:12.065Z,13.93
2022-10-11T21:05:39.472Z,11.90
2022-10-11T21:08:07.067Z,17.83
2022-10-11T21:10:34.606Z,13.85
2022-10-11T21:13:02.328Z,17.63
2022-10-11T21:15:30.695Z,15.48
2022-10-11T21:17:58.184Z,16.50
2022-10-11T21:20:25.889Z,14.57
2022-10-11T21:22:53.271Z,19.60
2022-10-11T21:25:20.956Z,17.85
2022-10-11T21:27:48.368Z,14.20
2022-10-11T21:30:15.856Z,12.48
2022-10-11T21:32:43.312Z,13.70
2022-10-11T21:35:11.275Z,13.00
2022-10-11T21:37:38.760Z,13.88
2022-10-11T21:40:06.446Z,14.35
2022-10-11T21:42:34.241Z,17.83
2022-10-11T21:45:02.137Z,14.25
2022-10-11T21:47:31.361Z,14.70
2022-10-11T21:49:58.886Z,15.35
2022-10-11T21:52:26.323Z,18.80
2022-10-11T21:54:53.711Z,16.90
2022-10-11T21:57:21.172Z,15.10
2022-10-11T21:59:48.559Z,13.30
2022-10-11T22:02:16.050Z,15.10
2022-10-11T22:04:43.443Z,15.35
2022-10-11T22:07:10.993Z,12.80
2022-10-11T22:09:38.396Z,19.35
2022-10-11T22:12:05.912Z,12.55
2022-10-11T22:14:33.295Z,15.57
2022-10-11T22:17:00.732Z,13.35
2022-10-11T22:19:28.095Z,18.38
2022-10-11T22:21:55.535Z,15.93
2022-10-11T22:24:23.096Z,12.40
2022-10-11T22:26:50.640Z,14.45
2022-10-11T22:29:18.036Z,15.82
2022-10-11T22:31:45.526Z,14.10
2022-10-11T22:34:12.920Z,13.85
2022-10-11T22:36:40.561Z,14.63
2022-10-11T22:39:08.315Z,14.13
2022-10-11T22:41:36.152Z,15.45
2022-10-11T22:44:03.607Z,14.77
2022-10-11T22:46:31.193Z,12.60
2022-10-11T22:48:58.901Z,18.63
2022-10-11T22:51:26.456Z,18.77
2022-10-11T22:53:53.881Z,16.25
2022-10-11T22:56:21.489Z,16.67
2022-10-11T22:58:48.916Z,14.23
2022-10-11T23:01:16.827Z,14.00
2022-10-11T23:03:44.304Z,14.00
2022-10-11T23:06:11.734Z,18.52
2022-10-11T23:08:39.176Z,18.42
2022-10-11T23:11:07.255Z,14.32
2022-10-11T23:13:35.220Z,14.63
2022-10-11T23:16:12.476Z,18.00
2022-10-11T23:18:40.021Z,19.45
2022-10-11T23:21:08.472Z,16.48
2022-10-11T23:23:36.091Z,16.23
2022-10-11T23:26:07.481Z,19.33
2022-10-11T23:28:35.367Z,16.70
2022-10-11T23:31:07.337Z,20.52
2022-10-11T23:33:35.199Z,15.15
2022-10-11T23:36:02.916Z,19.65
2022-10-11T23:38:30.444Z,19.58
2022-10-11T23:40:57.906Z,19.63
2022-10-11T23:43:25.683Z,17.92
2022-10-11T23:45:54.976Z,16.40
2022-10-11T23:48:22.581Z,17.60
2022-10-11T23:50:50.316Z,16.95
2022-10-11T23:53:17.855Z,16.73
2022-10-11T23:55:45.228Z,17.05
2022-10-11T23:58:12.717Z,17.10
